Time;durP1;ratioP1;P1;durP2;ratioP2;P2;SDS_P1;SDS_P2;PMS_P1;PMS_P2;Temp;Humidity;BMP_temperature;BMP_pressure;BME280_temperature;BME280_humidity;BME280_pressure;Samples;Min_cycle;Max_cycle;Signal;HPM_P1;HPM_P2
2021/05/04 00:01:10;;;;;;;5.33;4.92;;;;;;;15.27;52.52;94645.63;828025;71;30325;-76
2021/05/04 00:16:08;;;;;;;4.90;4.50;;;;;;;15.20;52.62;94658.77;827074;71;29539;-74
2021/05/04 00:31:08;;;;;;;5.30;4.87;;;;;;;15.10;52.71;94668.34;829212;71;29649;-73
2021/05/04 00:46:19;;;;;;;5.67;5.17;;;;;;;14.97;52.73;94673.25;825822;71;33173;-74
2021/05/04 01:01:10;;;;;;;4.80;4.45;;;;;;;14.72;53.41;94641.23;828129;71;30334;-74
2021/05/04 01:16:15;;;;;;;6.25;5.37;;;;;;;14.81;53.59;94644.64;822281;71;32781;-73
2021/05/04 01:31:14;;;;;;;5.15;4.75;;;;;;;14.92;53.41;94645.66;829873;71;32717;-75
2021/05/04 01:46:14;;;;;;;6.37;5.78;;;;;;;14.97;53.74;94650.80;815308;71;33258;-75
2021/05/04 02:01:08;;;;;;;5.37;4.95;;;;;;;15.05;53.37;94656.63;828241;71;30021;-74
2021/05/04 02:16:08;;;;;;;6.17;5.60;;;;;;;15.12;52.71;94654.27;828352;71;29685;-75
2021/05/04 02:31:14;;;;;;;6.10;5.65;;;;;;;15.14;52.22;94648.13;827339;71;32647;-75
2021/05/04 02:46:09;;;;;;;6.42;5.85;;;;;;;15.12;51.92;94650.86;827871;71;30484;-74
2021/05/04 03:01:45;;;;;;;6.20;5.70;;;;;;;15.05;51.61;94675.13;827637;71;32703;-75
2021/05/04 03:16:08;;;;;;;5.95;5.45;;;;;;;14.85;51.18;94661.98;834027;71;29640;-74
2021/05/04 03:31:10;;;;;;;5.50;5.10;;;;;;;14.88;50.72;94701.00;828084;71;30204;-73
2021/05/04 03:46:14;;;;;;;6.47;5.80;;;;;;;14.86;50.63;94701.83;820494;71;33661;-77
2021/05/04 04:01:08;;;;;;;5.47;5.00;;;;;;;14.82;49.75;94692.44;824263;71;29588;-75
2021/05/04 04:16:08;;;;;;;5.15;4.75;;;;;;;14.91;48.28;94709.62;825037;71;30005;-73
2021/05/04 04:31:09;;;;;;;5.08;4.33;;;;;;;14.81;48.10;94705.95;827971;71;30720;-74
2021/05/04 04:46:09;;;;;;;5.40;4.90;;;;;;;15.93;47.59;94726.83;824130;71;29641;-74
2021/05/04 05:01:09;;;;;;;7.03;6.30;;;;;;;17.88;44.52;94716.31;818254;71;30317;-74
2021/05/04 05:16:10;;;;;;;4.85;4.45;;;;;;;22.12;41.11;94722.58;833892;71;30360;-76
2021/05/04 05:31:09;;;;;;;11.50;10.50;;;;;;;22.43;39.58;94716.27;828488;71;29619;-75
2021/05/04 05:46:14;;;;;;;6.28;5.65;;;;;;;23.89;37.90;94695.25;827787;71;33329;-75
2021/05/04 06:01:14;;;;;;;5.40;5.00;;;;;;;23.05;36.94;94669.77;827665;71;33244;-77
2021/05/04 06:16:14;;;;;;;6.93;6.00;;;;;;;23.13;34.83;94662.80;833200;71;33151;-78
2021/05/04 06:31:10;;;;;;;7.03;5.50;;;;;;;23.05;38.56;94643.77;829641;71;29275;-79
2021/05/04 06:46:09;;;;;;;6.37;5.87;;;;;;;21.85;34.53;94641.00;824718;71;30038;-75
2021/05/04 07:01:08;;;;;;;6.70;6.10;;;;;;;21.64;35.52;94633.40;826068;71;29312;-77
2021/05/04 07:16:15;;;;;;;6.17;5.65;;;;;;;20.83;37.26;94605.34;826099;71;32091;-75
2021/05/04 07:31:08;;;;;;;6.15;5.37;;;;;;;20.85;36.57;94603.09;829483;71;29648;-81
2021/05/04 07:46:26;;;;;;;5.75;5.25;;;;;;;22.24;33.66;94612.82;828355;71;32740;-83
2021/05/04 08:01:09;;;;;;;5.17;4.78;;;;;;;21.36;32.99;94600.25;835440;71;29233;-80
2021/05/04 08:16:16;;;;;;;4.85;4.45;;;;;;;21.46;32.65;94578.34;827972;71;32764;-86
2021/05/04 08:31:09;;;;;;;4.55;3.95;;;;;;;21.26;32.55;94563.46;830126;70;30301;-86
2021/05/04 08:46:09;;;;;;;6.75;5.67;;;;;;;22.13;32.08;94551.16;829846;71;30271;-82
2021/05/04 09:01:46;;;;;;;4.60;4.30;;;;;;;22.18;31.21;94538.84;835614;71;32675;-84
2021/05/04 09:16:28;;;;;;;5.97;5.40;;;;;;;22.29;30.72;94543.59;830244;70;29746;-80
2021/05/04 09:31:24;;;;;;;4.42;4.08;;;;;;;21.96;31.94;94504.36;830319;71;32689;-83
2021/05/04 09:46:14;;;;;;;5.72;5.10;;;;;;;22.37;31.51;94483.16;828978;70;32675;-85
2021/05/04 10:01:11;;;;;;;5.13;4.63;;;;;;;23.80;33.69;94470.98;834839;71;29672;-77
2021/05/04 10:16:11;;;;;;;5.23;4.83;;;;;;;24.22;28.30;94464.92;830072;71;30232;-78
2021/05/04 10:31:16;;;;;;;5.10;4.43;;;;;;;24.04;29.88;94460.23;827762;71;32699;-79
2021/05/04 10:46:11;;;;;;;5.47;4.97;;;;;;;24.33;29.97;94444.27;829069;71;29702;-79
2021/05/04 11:01:10;;;;;;;5.13;4.73;;;;;;;25.34;29.14;94407.72;825719;71;29723;-79
2021/05/04 11:16:31;;;;;;;5.77;5.20;;;;;;;26.16;29.61;94400.88;822072;71;31984;-80
2021/05/04 11:31:39;;;;;;;5.37;4.90;;;;;;;25.64;29.55;94376.98;822253;71;32078;-79
2021/05/04 11:46:32;;;;;;;6.03;5.47;;;;;;;26.35;28.69;94365.24;816008;71;33654;-82
2021/05/04 12:02:00;;;;;;;5.90;5.40;;;;;;;26.01;27.96;94321.97;821185;71;32903;-80
2021/05/04 12:16:08;;;;;;;6.00;5.40;;;;;;;24.43;29.68;94301.38;820124;71;30244;-81
2021/05/04 12:31:36;;;;;;;5.70;5.30;;;;;;;23.85;30.88;94272.33;818309;71;32957;-79
2021/05/04 12:46:18;;;;;;;5.80;5.20;;;;;;;23.53;31.56;94248.83;827837;71;32640;-78
2021/05/04 13:01:13;;;;;;;6.00;5.50;;;;;;;23.63;31.21;94239.30;834352;71;32799;-80
2021/05/04 13:31:15;;;;;;;5.60;5.10;;;;;;;23.96;31.06;94206.11;824933;70;32745;-74
2021/05/04 14:31:09;;;;;;;5.97;5.47;;;;;;;23.55;36.01;94180.16;834017;71;29417;-78
2021/05/04 15:01:50;;;;;;;5.70;5.10;;;;;;;22.62;34.52;94140.31;828824;71;30907;-81
2021/05/04 15:31:12;;;;;;;4.95;4.55;;;;;;;21.97;35.68;94122.45;828644;71;31953;-79
2021/05/04 15:46:31;;;;;;;5.85;5.35;;;;;;;21.74;36.46;94123.22;833957;71;28560;-79
2021/05/04 16:16:21;;;;;;;7.90;6.40;;;;;;;21.89;38.93;94101.40;828028;71;32239;-82
2021/05/04 16:31:15;;;;;;;6.80;6.25;;;;;;;21.71;39.04;94100.67;829498;70;31728;-80
2021/05/04 16:46:14;;;;;;;6.85;6.28;;;;;;;21.08;40.79;94092.20;834325;71;31800;-80
2021/05/04 17:01:16;;;;;;;7.47;6.40;;;;;;;20.55;41.52;94066.39;834463;71;31665;-84
2021/05/04 21:01:43;;;;;;;7.28;6.47;;;;;;;18.33;50.09;94145.13;816788;72;31103;-86
2021/05/04 21:16:15;;;;;;;7.97;7.17;;;;;;;18.68;49.56;94131.64;832203;71;31773;-87
2021/05/04 21:31:28;;;;;;;6.70;5.70;;;;;;;18.96;47.30;94124.84;812392;71;31779;-82
2021/05/04 21:46:20;;;;;;;6.60;5.90;;;;;;;18.77;48.68;94128.97;791881;70;32340;31
2021/05/04 22:01:22;;;;;;;7.30;6.60;;;;;;;19.20;48.47;94123.77;830026;70;31731;-86
